Time;durP1;ratioP1;P1;durP2;ratioP2;P2;SDS_P1;SDS_P2;PMS_P1;PMS_P2;Temp;Humidity;BMP_temperature;BMP_pressure;BME280_temperature;BME280_humidity;BME280_pressure;Samples;Min_cycle;Max_cycle;Signal;HPM_P1;HPM_P2
2022/10/21 00:00:28;;;;;;;;;;;11.00;99.90;;;;;;5046291;28;19924;-93
2022/10/21 00:02:54;;;;;;;;;;;10.90;99.90;;;;;;5038860;28;20023;-92
2022/10/21 00:05:19;;;;;;;;;;;10.90;99.90;;;;;;5027599;28;20360;-93
2022/10/21 00:07:46;;;;;;;;;;;10.90;99.90;;;;;;5029507;28;19931;-93
2022/10/21 00:10:13;;;;;;;;;;;10.90;99.90;;;;;;5049377;28;19932;-93
2022/10/21 00:12:38;;;;;;;;;;;10.90;99.90;;;;;;5042383;28;19926;-95
2022/10/21 00:15:05;;;;;;;;;;;10.90;99.90;;;;;;5062439;28;19948;-93
2022/10/21 00:17:30;;;;;;;;;;;10.90;99.90;;;;;;5020867;28;19944;-93
2022/10/21 00:19:56;;;;;;;;;;;10.90;99.90;;;;;;5028411;28;19933;-92
2022/10/21 00:22:22;;;;;;;;;;;10.90;99.90;;;;;;5041324;28;19952;-94
2022/10/21 00:24:47;;;;;;;;;;;10.90;99.90;;;;;;5043262;28;19925;-94
2022/10/21 00:27:13;;;;;;;;;;;10.90;99.90;;;;;;5023890;28;20475;-93
2022/10/21 00:29:38;;;;;;;;;;;10.90;99.90;;;;;;5025937;28;20300;-92
2022/10/21 00:32:04;;;;;;;;;;;10.90;99.90;;;;;;5043115;28;19925;-93
2022/10/21 00:34:30;;;;;;;;;;;10.90;99.90;;;;;;5024771;28;19926;-95
2022/10/21 00:36:56;;;;;;;;;;;10.90;99.90;;;;;;5052481;28;20409;-93
2022/10/21 00:39:21;;;;;;;;;;;10.90;99.90;;;;;;5074126;28;20376;-94
2022/10/21 00:41:47;;;;;;;;;;;10.90;99.90;;;;;;5046675;28;20028;-94
2022/10/21 00:44:13;;;;;;;;;;;10.90;99.90;;;;;;5057136;28;19943;-93
2022/10/21 00:46:44;;;;;;;;;;;10.90;99.90;;;;;;5063270;28;20333;-91
2022/10/21 00:49:28;;;;;;;;;;;10.90;99.90;;;;;;5056472;28;20102;-93
2022/10/21 00:51:55;;;;;;;;;;;10.80;99.90;;;;;;5071752;28;19942;-93
2022/10/21 00:54:22;;;;;;;;;;;10.80;99.90;;;;;;5024574;28;19967;-92
2022/10/21 00:56:48;;;;;;;;;;;10.80;99.90;;;;;;5024368;28;19925;-92
2022/10/21 00:59:14;;;;;;;;;;;10.80;99.90;;;;;;5074838;28;19932;-93
2022/10/21 01:01:40;;;;;;;;;;;10.80;99.90;;;;;;5055751;28;19988;-92
2022/10/21 01:04:06;;;;;;;;;;;10.80;99.90;;;;;;5058552;28;19932;-92
2022/10/21 01:06:32;;;;;;;;;;;10.80;99.90;;;;;;5027477;28;20284;-92
2022/10/21 01:08:58;;;;;;;;;;;10.80;99.90;;;;;;5070892;28;19925;-92
2022/10/21 01:11:25;;;;;;;;;;;10.80;99.90;;;;;;5040831;28;19925;-91
2022/10/21 01:14:00;;;;;;;;;;;10.80;99.90;;;;;;5024607;28;19944;-91
2022/10/21 01:16:38;;;;;;;;;;;10.70;99.90;;;;;;5073762;28;20380;-93
2022/10/21 01:19:19;;;;;;;;;;;10.70;99.90;;;;;;5040279;28;19931;-92
2022/10/21 01:21:45;;;;;;;;;;;10.70;99.90;;;;;;5070754;28;19924;-93
2022/10/21 01:24:14;;;;;;;;;;;10.70;99.90;;;;;;5028832;28;19932;-93
2022/10/21 01:26:42;;;;;;;;;;;10.70;99.90;;;;;;5022722;28;20337;-91
2022/10/21 01:29:26;;;;;;;;;;;10.70;99.90;;;;;;5074372;28;19990;-92
2022/10/21 01:32:11;;;;;;;;;;;10.70;99.90;;;;;;5071573;28;20019;-91
2022/10/21 01:34:49;;;;;;;;;;;10.70;99.90;;;;;;5038624;28;19956;-92
2022/10/21 01:37:24;;;;;;;;;;;10.70;99.90;;;;;;5045573;28;19925;-92
2022/10/21 01:39:52;;;;;;;;;;;10.70;99.90;;;;;;5068476;28;19941;-91
2022/10/21 01:42:18;;;;;;;;;;;10.70;99.90;;;;;;5044894;28;19925;-91
2022/10/21 01:44:53;;;;;;;;;;;10.70;99.90;;;;;;5034900;28;19925;-92
2022/10/21 01:47:21;;;;;;;;;;;10.60;99.90;;;;;;5069151;28;20002;-92
2022/10/21 01:49:55;;;;;;;;;;;10.60;99.90;;;;;;5022353;28;19996;-91
2022/10/21 01:52:21;;;;;;;;;;;10.60;99.90;;;;;;5027404;28;20359;-92
2022/10/21 01:54:51;;;;;;;;;;;10.60;99.90;;;;;;5033692;28;19925;-91
2022/10/21 01:57:18;;;;;;;;;;;10.60;99.90;;;;;;5041989;28;19981;-92
2022/10/21 01:59:45;;;;;;;;;;;10.60;99.90;;;;;;5027624;28;20273;-92
2022/10/21 02:02:11;;;;;;;;;;;10.60;99.90;;;;;;5026745;28;19926;-91
2022/10/21 02:04:39;;;;;;;;;;;10.70;99.90;;;;;;5040569;28;19925;-90
2022/10/21 02:07:05;;;;;;;;;;;10.70;99.90;;;;;;5062734;28;19924;-91
2022/10/21 02:09:31;;;;;;;;;;;10.70;99.90;;;;;;5061053;28;19925;-92
2022/10/21 02:11:58;;;;;;;;;;;9.30;99.90;;;;;;5029941;28;19926;-91
2022/10/21 02:14:30;;;;;;;;;;;10.70;99.90;;;;;;5045020;28;19925;-91
2022/10/21 02:16:56;;;;;;;;;;;10.70;99.90;;;;;;5077867;28;19925;-91
2022/10/21 02:19:22;;;;;;;;;;;10.70;99.90;;;;;;5041715;28;19929;-92
2022/10/21 02:21:50;;;;;;;;;;;10.80;99.90;;;;;;5042875;28;19971;-92
2022/10/21 02:24:19;;;;;;;;;;;10.80;99.90;;;;;;5027460;28;19925;-93
2022/10/21 02:26:44;;;;;;;;;;;10.80;99.90;;;;;;5026727;28;19932;-92
2022/10/21 02:29:11;;;;;;;;;;;10.90;99.90;;;;;;5060100;28;19925;-92
2022/10/21 02:32:12;;;;;;;;;;;10.90;99.90;;;;;;5041289;28;19936;-92
2022/10/21 02:34:47;;;;;;;;;;;11.00;99.90;;;;;;5044959;28;19984;-91
2022/10/21 02:37:15;;;;;;;;;;;11.00;99.90;;;;;;5036847;28;19929;-91
2022/10/21 02:39:44;;;;;;;;;;;11.00;99.90;;;;;;5041578;28;19925;-92
2022/10/21 02:42:12;;;;;;;;;;;11.10;99.90;;;;;;5042974;28;19979;-91
2022/10/21 02:44:37;;;;;;;;;;;11.10;99.90;;;;;;5041308;28;19925;-91
2022/10/21 02:47:03;;;;;;;;;;;11.10;99.90;;;;;;5026297;28;19972;-93
2022/10/21 02:49:28;;;;;;;;;;;11.10;99.90;;;;;;5041164;28;19979;-92
2022/10/21 02:51:54;;;;;;;;;;;11.10;99.90;;;;;;5042186;28;19925;-91
2022/10/21 02:54:20;;;;;;;;;;;11.20;99.90;;;;;;5042616;28;20000;-92
2022/10/21 02:56:45;;;;;;;;;;;11.20;99.90;;;;;;5023988;28;19925;-93
2022/10/21 02:59:11;;;;;;;;;;;11.20;99.90;;;;;;5026638;28;19965;-94
2022/10/21 03:01:37;;;;;;;;;;;11.20;99.90;;;;;;5058443;28;19925;-93
2022/10/21 03:04:02;;;;;;;;;;;11.30;99.90;;;;;;5055381;28;19937;-94
2022/10/21 03:06:28;;;;;;;;;;;11.30;99.90;;;;;;5060687;28;19925;-92
2022/10/21 03:08:53;;;;;;;;;;;11.30;99.90;;;;;;5009841;28;19936;-93
2022/10/21 03:11:19;;;;;;;;;;;11.40;99.90;;;;;;5059123;28;20277;-91
2022/10/21 03:13:44;;;;;;;;;;;11.40;99.90;;;;;;5040074;28;19925;-94
2022/10/21 03:16:10;;;;;;;;;;;11.40;99.90;;;;;;5040050;28;19925;-94
2022/10/21 03:18:36;;;;;;;;;;;11.40;99.90;;;;;;5070995;28;19925;-92
2022/10/21 03:21:01;;;;;;;;;;;11.40;99.90;;;;;;5044679;28;20469;-92
2022/10/21 03:23:27;;;;;;;;;;;11.40;99.90;;;;;;5057614;28;19925;-92
2022/10/21 03:25:52;;;;;;;;;;;11.50;99.90;;;;;;5038798;28;19936;-92
2022/10/21 03:28:18;;;;;;;;;;;11.50;99.90;;;;;;5053249;28;19928;-92
2022/10/21 03:30:43;;;;;;;;;;;11.50;99.90;;;;;;5017578;28;19932;-92
2022/10/21 03:33:09;;;;;;;;;;;11.50;99.90;;;;;;5024924;28;19936;-93
2022/10/21 03:35:35;;;;;;;;;;;11.40;99.90;;;;;;5023958;28;19925;-93
2022/10/21 03:38:00;;;;;;;;;;;11.50;99.90;;;;;;5027281;28;19932;-94
2022/10/21 03:40:29;;;;;;;;;;;11.40;99.90;;;;;;5035776;28;19929;-94
2022/10/21 03:42:56;;;;;;;;;;;11.40;99.90;;;;;;5009157;28;19948;-92
2022/10/21 03:45:21;;;;;;;;;;;11.40;99.90;;;;;;5041537;28;20015;-92
2022/10/21 03:47:47;;;;;;;;;;;11.40;99.90;;;;;;5053193;28;19963;-93
2022/10/21 03:50:13;;;;;;;;;;;11.40;99.90;;;;;;5027773;28;19925;-93
2022/10/21 03:52:38;;;;;;;;;;;11.40;99.90;;;;;;5056785;28;19956;-92
2022/10/21 03:55:04;;;;;;;;;;;11.40;99.90;;;;;;5041986;28;19965;-92
2022/10/21 03:57:30;;;;;;;;;;;11.40;99.90;;;;;;5062099;28;19951;-94
2022/10/21 03:59:55;;;;;;;;;;;11.40;99.90;;;;;;5055018;28;19955;-92
2022/10/21 04:02:21;;;;;;;;;;;11.40;99.90;;;;;;5080114;28;20015;-93
2022/10/21 04:04:46;;;;;;;;;;;11.40;99.90;;;;;;5039177;28;19925;-93
2022/10/21 04:07:12;;;;;;;;;;;11.40;99.90;;;;;;5024338;28;19929;-92
2022/10/21 04:09:37;;;;;;;;;;;11.40;99.90;;;;;;5039615;28;19964;-93
2022/10/21 04:12:03;;;;;;;;;;;11.40;99.90;;;;;;5041220;28;19933;-93
2022/10/21 04:14:28;;;;;;;;;;;11.40;99.90;;;;;;5055422;28;19925;-93
2022/10/21 04:16:54;;;;;;;;;;;11.40;99.90;;;;;;5025021;28;19925;-92
2022/10/21 04:19:20;;;;;;;;;;;11.40;99.90;;;;;;5023600;28;19925;-93
2022/10/21 04:21:45;;;;;;;;;;;11.30;99.90;;;;;;5041295;28;19925;-93
2022/10/21 04:24:11;;;;;;;;;;;11.40;99.90;;;;;;5060442;28;20016;-94
2022/10/21 04:26:37;;;;;;;;;;;11.30;99.90;;;;;;5056113;28;20363;-93
2022/10/21 04:29:03;;;;;;;;;;;11.30;99.90;;;;;;5055999;28;20459;-94
2022/10/21 04:31:29;;;;;;;;;;;11.30;99.90;;;;;;5034549;28;19926;-92
2022/10/21 04:33:54;;;;;;;;;;;11.30;99.90;;;;;;5040820;28;19925;-93
2022/10/21 04:36:20;;;;;;;;;;;11.30;99.90;;;;;;5023228;28;20326;-92
2022/10/21 04:38:46;;;;;;;;;;;11.30;99.90;;;;;;5051678;28;19964;-92
2022/10/21 04:41:11;;;;;;;;;;;11.30;99.90;;;;;;5023951;28;19932;-92
2022/10/21 04:43:37;;;;;;;;;;;11.30;99.90;;;;;;5056311;28;19925;-92
2022/10/21 04:46:03;;;;;;;;;;;11.30;99.90;;;;;;5035052;28;19948;-92
2022/10/21 04:48:28;;;;;;;;;;;11.30;99.90;;;;;;5057163;28;19936;-92
2022/10/21 04:50:54;;;;;;;;;;;12.00;99.90;;;;;;5041454;28;19956;-93
2022/10/21 04:53:20;;;;;;;;;;;11.30;99.90;;;;;;5038513;28;19972;-93
2022/10/21 04:55:52;;;;;;;;;;;11.30;99.90;;;;;;5040392;28;19925;-93
2022/10/21 04:58:19;;;;;;;;;;;11.30;99.90;;;;;;5040278;28;19925;-92
2022/10/21 05:00:44;;;;;;;;;;;11.30;99.90;;;;;;5056576;28;20469;-93
2022/10/21 05:03:10;;;;;;;;;;;11.30;99.90;;;;;;5040352;28;19989;-93
2022/10/21 05:05:35;;;;;;;;;;;11.40;99.90;;;;;;5038763;28;20024;-93
2022/10/21 05:08:01;;;;;;;;;;;11.40;99.90;;;;;;5040564;28;19924;-94
2022/10/21 05:10:29;;;;;;;;;;;11.40;99.90;;;;;;5055591;28;19931;-92
2022/10/21 05:12:57;;;;;;;;;;;11.50;99.90;;;;;;5053277;28;19973;-92
2022/10/21 05:15:24;;;;;;;;;;;11.50;99.90;;;;;;5024041;28;19936;-91
2022/10/21 05:17:50;;;;;;;;;;;11.50;99.90;;;;;;5033136;28;19932;-92
2022/10/21 05:20:15;;;;;;;;;;;11.50;99.90;;;;;;5049469;28;20321;-93
2022/10/21 05:22:41;;;;;;;;;;;11.50;99.90;;;;;;5040971;28;20442;-92
2022/10/21 05:25:07;;;;;;;;;;;11.50;99.90;;;;;;5059764;28;19925;-93
2022/10/21 05:27:32;;;;;;;;;;;11.60;99.90;;;;;;5040560;28;19929;-91
2022/10/21 05:29:58;;;;;;;;;;;11.60;99.90;;;;;;5040250;28;19925;-94
2022/10/21 05:32:24;;;;;;;;;;;11.60;99.90;;;;;;5021664;28;19925;-94
2022/10/21 05:34:49;;;;;;;;;;;11.60;99.90;;;;;;5039761;28;19933;-92
2022/10/21 05:37:15;;;;;;;;;;;11.60;99.90;;;;;;5039796;28;19925;-91
2022/10/21 05:39:41;;;;;;;;;;;11.60;99.90;;;;;;5025826;28;19932;-92
2022/10/21 05:42:06;;;;;;;;;;;11.70;99.90;;;;;;5023786;28;19925;-93
2022/10/21 05:44:32;;;;;;;;;;;11.70;99.90;;;;;;5038452;28;19969;-92
2022/10/21 05:46:57;;;;;;;;;;;11.70;99.90;;;;;;5028254;28;19952;-92
2022/10/21 05:49:23;;;;;;;;;;;11.70;99.90;;;;;;5038582;28;19975;-92
2022/10/21 05:51:49;;;;;;;;;;;11.70;99.90;;;;;;5060484;28;19936;-92
2022/10/21 05:54:14;;;;;;;;;;;11.70;99.90;;;;;;5041414;28;19933;-93
2022/10/21 05:56:41;;;;;;;;;;;11.70;99.90;;;;;;5045955;28;19929;-91
2022/10/21 05:59:07;;;;;;;;;;;11.70;99.90;;;;;;5023514;28;19926;-92
2022/10/21 06:01:33;;;;;;;;;;;11.80;99.90;;;;;;5013657;28;20515;-93
2022/10/21 06:03:58;;;;;;;;;;;11.80;99.90;;;;;;5066844;28;19925;-94
2022/10/21 06:06:24;;;;;;;;;;;11.80;99.90;;;;;;5054907;28;19964;-95
2022/10/21 06:08:50;;;;;;;;;;;11.80;99.90;;;;;;5053091;28;19925;-95
2022/10/21 06:11:16;;;;;;;;;;;11.80;99.90;;;;;;5055059;28;19951;-95
2022/10/21 06:13:42;;;;;;;;;;;11.70;99.90;;;;;;5032869;28;19925;-95
2022/10/21 06:16:09;;;;;;;;;;;11.70;99.90;;;;;;5063890;28;19933;-92
2022/10/21 06:18:34;;;;;;;;;;;11.70;99.90;;;;;;5052666;28;19971;-92
2022/10/21 06:21:02;;;;;;;;;;;11.70;99.90;;;;;;5067321;28;19929;-94
2022/10/21 06:23:31;;;;;;;;;;;11.70;99.90;;;;;;5056032;28;19925;-94
2022/10/21 06:26:17;;;;;;;;;;;11.70;99.90;;;;;;5035049;28;19964;-94
2022/10/21 06:28:43;;;;;;;;;;;11.70;99.90;;;;;;5071470;28;19929;-95
2022/10/21 06:31:11;;;;;;;;;;;11.70;99.90;;;;;;5051769;28;19929;-94
2022/10/21 06:33:37;;;;;;;;;;;11.70;99.90;;;;;;5035220;28;19988;-95
2022/10/21 06:36:03;;;;;;;;;;;11.70;99.90;;;;;;5015431;28;19926;-95
2022/10/21 06:38:31;;;;;;;;;;;11.70;99.90;;;;;;5060920;28;19936;-95
2022/10/21 06:41:07;;;;;;;;;;;11.60;99.90;;;;;;5075627;28;19925;-96
2022/10/21 06:43:32;;;;;;;;;;;11.60;99.90;;;;;;5069301;28;20199;-92
2022/10/21 06:46:08;;;;;;;;;;;11.60;99.90;;;;;;5048338;28;19927;-96
2022/10/21 06:48:34;;;;;;;;;;;11.60;99.90;;;;;;5045025;28;19921;-94
2022/10/21 06:51:02;;;;;;;;;;;11.70;99.90;;;;;;5091947;28;19921;-92
2022/10/21 06:53:28;;;;;;;;;;;11.60;99.90;;;;;;5051702;28;19921;-92
2022/10/21 06:56:04;;;;;;;;;;;11.60;99.90;;;;;;5085933;28;19983;-95
2022/10/21 06:58:30;;;;;;;;;;;11.60;99.90;;;;;;5089220;28;19921;-90
2022/10/21 07:00:56;;;;;;;;;;;11.70;99.90;;;;;;5054907;28;19929;-94
2022/10/21 07:03:21;;;;;;;;;;;11.70;99.90;;;;;;5037691;23;19925;-88
2022/10/21 07:05:47;;;;;;;;;;;11.60;99.90;;;;;;4978224;28;19926;-89
2022/10/21 07:08:13;;;;;;;;;;;11.70;99.90;;;;;;4979058;28;19933;-88
2022/10/21 07:10:41;;;;;;;;;;;11.90;99.90;;;;;;4981482;28;20013;-89
2022/10/21 07:13:09;;;;;;;;;;;11.70;99.90;;;;;;4978096;28;19975;-89
2022/10/21 07:15:34;;;;;;;;;;;11.80;99.90;;;;;;4974848;28;19926;-90
2022/10/21 07:18:00;;;;;;;;;;;12.20;99.90;;;;;;4976721;28;19925;-87
2022/10/21 07:20:26;;;;;;;;;;;13.50;99.90;;;;;;4994044;28;19929;-90
2022/10/21 07:22:52;;;;;;;;;;;12.00;99.90;;;;;;4977642;28;19926;-88
2022/10/21 07:25:18;;;;;;;;;;;12.00;99.90;;;;;;4977954;28;19926;-89
2022/10/21 07:27:46;;;;;;;;;;;11.90;99.90;;;;;;4991559;28;19932;-89
2022/10/21 07:30:12;;;;;;;;;;;11.90;99.90;;;;;;4981765;28;19977;-87
2022/10/21 07:32:37;;;;;;;;;;;11.90;99.90;;;;;;4981639;28;19972;-88
2022/10/21 07:35:03;;;;;;;;;;;11.10;99.90;;;;;;4974221;28;20012;-88
2022/10/21 07:37:31;;;;;;;;;;;11.90;99.90;;;;;;4973443;28;19926;-87
2022/10/21 07:39:57;;;;;;;;;;;12.00;99.90;;;;;;4974068;28;20017;-87
2022/10/21 07:42:23;;;;;;;;;;;11.90;99.90;;;;;;4990802;28;20353;-88
2022/10/21 07:44:51;;;;;;;;;;;10.80;99.90;;;;;;4977710;28;19948;-89
2022/10/21 07:47:22;;;;;;;;;;;12.00;99.90;;;;;;4977881;28;19933;-89
2022/10/21 07:49:48;;;;;;;;;;;11.90;99.90;;;;;;4997419;28;19925;-88
2022/10/21 07:52:16;;;;;;;;;;;10.90;99.90;;;;;;4992896;28;21837;-88
2022/10/21 07:54:44;;;;;;;;;;;12.00;99.90;;;;;;4976492;28;20386;-88
2022/10/21 07:57:12;;;;;;;;;;;12.00;99.90;;;;;;4991020;28;19973;-88
2022/10/21 07:59:38;;;;;;;;;;;12.20;99.90;;;;;;4978261;28;19925;-89
2022/10/21 08:02:04;;;;;;;;;;;11.90;99.90;;;;;;4985122;28;19933;-88
2022/10/21 08:04:32;;;;;;;;;;;11.80;99.90;;;;;;4977862;28;20005;-88
2022/10/21 08:06:58;;;;;;;;;;;11.80;99.90;;;;;;4976756;28;19926;-88
2022/10/21 08:09:25;;;;;;;;;;;11.80;99.90;;;;;;4976733;28;20286;-88
2022/10/21 08:11:53;;;;;;;;;;;11.80;99.90;;;;;;4976805;28;19933;-89
2022/10/21 08:14:19;;;;;;;;;;;10.50;99.90;;;;;;4976814;28;19934;-87
2022/10/21 08:16:44;;;;;;;;;;;11.90;99.90;;;;;;4981477;28;19930;-90
2022/10/21 08:19:18;;;;;;;;;;;11.90;99.90;;;;;;4978099;28;19936;-87
2022/10/21 08:21:46;;;;;;;;;;;11.90;99.90;;;;;;4992730;28;20036;-87
2022/10/21 08:24:15;;;;;;;;;;;12.00;99.90;;;;;;4973008;28;19926;-89
2022/10/21 08:26:40;;;;;;;;;;;12.00;99.90;;;;;;4964544;28;19926;-86
2022/10/21 08:29:06;;;;;;;;;;;12.10;99.90;;;;;;4976351;28;19940;-89
2022/10/21 08:31:49;;;;;;;;;;;12.10;99.90;;;;;;4992797;28;19936;-89
2022/10/21 08:34:22;;;;;;;;;;;12.30;99.90;;;;;;4970820;28;19972;-88
2022/10/21 08:36:48;;;;;;;;;;;12.40;99.90;;;;;;4976424;28;20263;-89
2022/10/21 08:39:19;;;;;;;;;;;12.40;99.90;;;;;;4976011;28;19932;-88
2022/10/21 08:42:00;;;;;;;;;;;12.70;99.90;;;;;;4981736;28;20008;-89
2022/10/21 08:44:45;;;;;;;;;;;12.50;99.90;;;;;;4975799;28;20032;-89
2022/10/21 08:47:13;;;;;;;;;;;12.50;99.90;;;;;;4975426;28;19926;-88
2022/10/21 08:49:39;;;;;;;;;;;12.70;99.90;;;;;;4976059;28;19926;-87
2022/10/21 08:52:08;;;;;;;;;;;12.80;99.90;;;;;;4982446;28;19926;-87
2022/10/21 08:54:37;;;;;;;;;;;12.80;99.90;;;;;;4977917;28;20020;-87
2022/10/21 08:57:02;;;;;;;;;;;11.50;99.90;;;;;;4975731;28;20008;-88
2022/10/21 08:59:28;;;;;;;;;;;13.00;99.90;;;;;;4975788;28;20281;-87
2022/10/21 09:02:23;;;;;;;;;;;13.20;99.90;;;;;;4992520;28;19925;-87
2022/10/21 09:04:55;;;;;;;;;;;13.10;99.90;;;;;;4972261;28;19926;-87
2022/10/21 09:07:47;;;;;;;;;;;13.30;99.90;;;;;;4973418;28;20294;-87
2022/10/21 09:10:25;;;;;;;;;;;13.30;99.90;;;;;;4977062;28;19926;-87
2022/10/21 09:12:53;;;;;;;;;;;13.40;99.90;;;;;;4978846;28;19957;-88
2022/10/21 09:15:25;;;;;;;;;;;13.50;99.90;;;;;;4985914;28;19937;-88
2022/10/21 09:17:56;;;;;;;;;;;13.60;99.90;;;;;;4978687;28;20271;-88
2022/10/21 09:20:28;;;;;;;;;;;13.70;99.90;;;;;;4989128;28;20029;-88
2022/10/21 09:22:57;;;;;;;;;;;13.80;99.90;;;;;;4987708;28;20396;-88
2022/10/21 09:25:43;;;;;;;;;;;13.90;99.90;;;;;;4967923;28;20356;-87
2022/10/21 09:28:12;;;;;;;;;;;14.10;99.90;;;;;;4962041;28;19987;-87
2022/10/21 09:30:39;;;;;;;;;;;14.20;99.90;;;;;;4990131;28;19976;-87
2022/10/21 09:33:11;;;;;;;;;;;14.20;99.90;;;;;;4995394;28;19926;-87
2022/10/21 09:35:43;;;;;;;;;;;14.30;99.90;;;;;;4974429;28;20339;-87
2022/10/21 09:38:15;;;;;;;;;;;14.30;99.90;;;;;;4975289;28;19930;-88
2022/10/21 09:40:41;;;;;;;;;;;14.30;99.90;;;;;;4974479;28;19973;-88
2022/10/21 09:43:14;;;;;;;;;;;14.40;99.90;;;;;;4973202;28;20396;-87
2022/10/21 09:45:42;;;;;;;;;;;14.40;99.90;;;;;;4975220;28;19926;-87
2022/10/21 09:48:17;;;;;;;;;;;14.40;99.90;;;;;;4971205;28;19938;-87
2022/10/21 09:50:54;;;;;;;;;;;14.50;99.90;;;;;;4991055;28;19934;-87
2022/10/21 09:53:36;;;;;;;;;;;15.80;99.90;;;;;;4980059;28;20035;-87
2022/10/21 09:56:31;;;;;;;;;;;14.70;99.90;;;;;;4979170;28;19940;-87
2022/10/21 09:59:10;;;;;;;;;;;14.80;99.90;;;;;;4978747;28;19930;-87
2022/10/21 10:01:36;;;;;;;;;;;14.80;99.90;;;;;;4990922;28;20017;-88
2022/10/21 10:04:13;;;;;;;;;;;15.00;99.90;;;;;;4992265;28;19926;-88
2022/10/21 10:06:45;;;;;;;;;;;15.10;99.90;;;;;;4974998;28;20017;-87
2022/10/21 10:09:20;;;;;;;;;;;15.20;99.90;;;;;;4994784;28;20008;-88
2022/10/21 10:11:53;;;;;;;;;;;15.40;99.90;;;;;;4976785;28;19929;-87
2022/10/21 10:14:25;;;;;;;;;;;15.40;99.90;;;;;;4994771;28;20389;-88
2022/10/21 10:16:50;;;;;;;;;;;15.50;99.90;;;;;;4978302;28;19925;-87
2022/10/21 10:19:16;;;;;;;;;;;15.60;99.90;;;;;;4997004;28;20297;-86
2022/10/21 10:21:42;;;;;;;;;;;15.60;99.90;;;;;;4979921;28;19941;-87
2022/10/21 10:24:15;;;;;;;;;;;15.70;99.90;;;;;;4981846;28;20294;-88
2022/10/21 10:26:41;;;;;;;;;;;15.40;99.90;;;;;;5018355;28;19978;-86
2022/10/21 10:29:09;;;;;;;;;;;15.70;99.90;;;;;;4978218;28;19965;-86
2022/10/21 10:31:35;;;;;;;;;;;15.60;99.90;;;;;;4979587;28;19937;-86
2022/10/21 10:34:03;;;;;;;;;;;15.60;99.90;;;;;;4993562;28;19926;-87
2022/10/21 10:36:31;;;;;;;;;;;15.70;99.90;;;;;;4996782;28;20046;-87
2022/10/21 10:38:58;;;;;;;;;;;15.70;99.90;;;;;;4999267;28;19991;-87
2022/10/21 10:41:32;;;;;;;;;;;15.70;99.90;;;;;;5005954;28;19933;-86
2022/10/21 10:43:58;;;;;;;;;;;15.70;99.90;;;;;;4991461;28;20064;-87
2022/10/21 10:46:33;;;;;;;;;;;15.80;99.90;;;;;;4997166;28;20395;-86
2022/10/21 10:49:22;;;;;;;;;;;15.80;99.90;;;;;;4993355;28;20012;-86
2022/10/21 10:52:03;;;;;;;;;;;15.90;99.90;;;;;;4977670;28;20325;-87
2022/10/21 10:54:28;;;;;;;;;;;15.90;99.90;;;;;;4997696;28;19981;-86
2022/10/21 10:57:12;;;;;;;;;;;15.90;99.90;;;;;;4975368;28;19973;-87
2022/10/21 10:59:40;;;;;;;;;;;15.90;99.90;;;;;;4982363;28;19965;-88
2022/10/21 11:02:10;;;;;;;;;;;15.90;99.90;;;;;;4969380;28;19929;-91
2022/10/21 11:04:41;;;;;;;;;;;15.80;99.90;;;;;;4976491;28;20446;-90
2022/10/21 11:07:16;;;;;;;;;;;16.00;99.90;;;;;;4987254;28;20066;-91
2022/10/21 11:09:41;;;;;;;;;;;16.00;99.90;;;;;;4981662;28;19934;-91
2022/10/21 11:12:20;;;;;;;;;;;16.10;99.90;;;;;;4976983;28;19926;-91
2022/10/21 11:14:52;;;;;;;;;;;16.30;99.90;;;;;;4980386;28;19926;-90
2022/10/21 11:17:21;;;;;;;;;;;16.00;99.90;;;;;;4979234;28;19925;-91
2022/10/21 11:19:49;;;;;;;;;;;16.50;99.90;;;;;;4977195;28;19937;-90
2022/10/21 11:22:20;;;;;;;;;;;16.10;99.90;;;;;;4972680;28;19936;-89
2022/10/21 11:24:53;;;;;;;;;;;16.30;99.90;;;;;;4977295;28;19953;-89
2022/10/21 11:27:38;;;;;;;;;;;16.20;99.90;;;;;;4988665;28;19986;-89
2022/10/21 11:30:20;;;;;;;;;;;16.40;99.90;;;;;;4976640;28;19992;-89
2022/10/21 11:32:55;;;;;;;;;;;16.30;99.90;;;;;;4998546;28;20136;-89
2022/10/21 11:35:27;;;;;;;;;;;16.40;99.90;;;;;;4974788;28;19929;-89
2022/10/21 11:38:00;;;;;;;;;;;16.40;99.90;;;;;;4986426;28;19997;-87
2022/10/21 11:40:31;;;;;;;;;;;14.90;99.90;;;;;;4976078;28;19961;-88
2022/10/21 11:43:04;;;;;;;;;;;16.60;99.90;;;;;;4975084;28;19992;-89
2022/10/21 11:45:33;;;;;;;;;;;16.60;99.90;;;;;;4976534;28;20261;-87
2022/10/21 11:48:19;;;;;;;;;;;16.40;99.90;;;;;;4976433;28;19926;-86
2022/10/21 11:51:00;;;;;;;;;;;16.40;99.90;;;;;;5002862;28;20291;-87
2022/10/21 11:53:40;;;;;;;;;;;14.80;99.90;;;;;;4977088;28;19934;-87
2022/10/21 11:56:08;;;;;;;;;;;16.40;99.90;;;;;;4976963;28;19934;-87
2022/10/21 11:58:43;;;;;;;;;;;16.40;99.90;;;;;;4997222;28;19932;-86
2022/10/21 12:01:13;;;;;;;;;;;16.40;99.90;;;;;;4976025;28;19926;-86
2022/10/21 12:03:39;;;;;;;;;;;16.50;99.90;;;;;;4991396;28;20412;-87
2022/10/21 12:06:12;;;;;;;;;;;16.50;99.90;;;;;;4992749;28;19926;-86
2022/10/21 12:08:44;;;;;;;;;;;16.40;99.90;;;;;;4993252;28;20329;-87
2022/10/21 12:11:27;;;;;;;;;;;16.30;99.90;;;;;;4976681;28;19981;-86
2022/10/21 12:13:58;;;;;;;;;;;16.30;99.90;;;;;;4981094;28;19933;-87
2022/10/21 12:16:28;;;;;;;;;;;16.60;99.90;;;;;;4987455;28;20262;-86
2022/10/21 12:18:59;;;;;;;;;;;16.40;99.90;;;;;;4974770;28;19973;-87
2022/10/21 12:21:27;;;;;;;;;;;16.50;99.90;;;;;;4993692;28;19925;-87
2022/10/21 12:23:57;;;;;;;;;;;16.40;99.90;;;;;;4976535;28;19932;-86
2022/10/21 12:26:27;;;;;;;;;;;16.40;99.90;;;;;;4976277;28;19926;-86
2022/10/21 12:28:57;;;;;;;;;;;16.50;99.90;;;;;;4986385;28;19930;-86
2022/10/21 12:31:38;;;;;;;;;;;16.50;99.90;;;;;;4988170;28;20008;-86
2022/10/21 12:34:04;;;;;;;;;;;16.50;99.90;;;;;;4972894;28;20264;-86
2022/10/21 12:36:37;;;;;;;;;;;16.50;99.90;;;;;;4977730;28;19945;-86
2022/10/21 12:39:08;;;;;;;;;;;16.50;99.90;;;;;;4974726;28;19972;-87
2022/10/21 12:41:34;;;;;;;;;;;15.30;99.90;;;;;;4992054;28;19930;-86
2022/10/21 12:44:02;;;;;;;;;;;16.80;99.90;;;;;;4977158;28;20247;-86
2022/10/21 12:46:29;;;;;;;;;;;16.60;99.90;;;;;;4997029;28;19926;-87
2022/10/21 12:48:56;;;;;;;;;;;16.50;99.90;;;;;;4992245;28;19933;-87
2022/10/21 12:51:25;;;;;;;;;;;16.60;99.90;;;;;;4981133;28;19949;-86
2022/10/21 12:53:57;;;;;;;;;;;16.50;99.90;;;;;;4981532;28;19965;-86
2022/10/21 12:56:41;;;;;;;;;;;16.50;99.90;;;;;;4969940;28;19933;-87
2022/10/21 12:59:24;;;;;;;;;;;16.80;99.90;;;;;;4974687;28;20298;-87
2022/10/21 13:02:05;;;;;;;;;;;16.50;99.90;;;;;;4975647;28;19926;-86
2022/10/21 13:04:30;;;;;;;;;;;16.40;99.90;;;;;;4992601;28;20012;-89
2022/10/21 13:06:57;;;;;;;;;;;16.40;99.90;;;;;;4992218;28;19977;-87
2022/10/21 13:09:43;;;;;;;;;;;16.40;99.90;;;;;;4977652;28;19926;-86
2022/10/21 13:12:08;;;;;;;;;;;16.40;99.90;;;;;;4978673;28;19934;-87
2022/10/21 13:14:47;;;;;;;;;;;16.40;99.90;;;;;;4976609;28;20267;-86
2022/10/21 13:17:33;;;;;;;;;;;16.40;99.90;;;;;;4994724;28;19934;-87
2022/10/21 13:20:05;;;;;;;;;;;16.40;99.90;;;;;;4979649;28;19976;-87
2022/10/21 13:22:34;;;;;;;;;;;16.40;99.90;;;;;;4977462;28;19933;-86
2022/10/21 13:25:14;;;;;;;;;;;16.50;99.90;;;;;;4983329;28;19948;-87
2022/10/21 13:27:45;;;;;;;;;;;16.50;99.90;;;;;;4985823;28;19925;-87
2022/10/21 13:30:25;;;;;;;;;;;16.50;99.90;;;;;;4975874;28;19926;-86
2022/10/21 13:32:59;;;;;;;;;;;16.50;99.90;;;;;;4980126;28;20297;-87
2022/10/21 13:35:29;;;;;;;;;;;16.50;99.90;;;;;;4993640;28;20013;-87
2022/10/21 13:38:17;;;;;;;;;;;16.50;99.90;;;;;;4983624;28;20351;-87
2022/10/21 13:40:49;;;;;;;;;;;16.50;99.90;;;;;;4976460;28;20378;-88
2022/10/21 13:43:27;;;;;;;;;;;16.60;99.90;;;;;;4988308;28;20388;-86
2022/10/21 13:46:02;;;;;;;;;;;16.70;99.90;;;;;;4996570;28;20083;-86
2022/10/21 13:48:27;;;;;;;;;;;16.70;99.90;;;;;;5003666;28;20285;-87
2022/10/21 13:50:53;;;;;;;;;;;16.80;99.90;;;;;;4978949;28;19926;-87
2022/10/21 13:53:24;;;;;;;;;;;16.80;99.90;;;;;;4979399;28;19941;-86
2022/10/21 13:55:59;;;;;;;;;;;16.80;99.90;;;;;;4979763;28;19933;-87
2022/10/21 13:58:26;;;;;;;;;;;16.80;99.90;;;;;;4986226;28;19926;-87
2022/10/21 14:00:52;;;;;;;;;;;16.80;99.90;;;;;;4978870;28;19948;-86
2022/10/21 14:03:19;;;;;;;;;;;16.80;99.90;;;;;;4978213;28;19925;-84
2022/10/21 14:05:50;;;;;;;;;;;16.90;99.90;;;;;;4982801;28;19926;-87
2022/10/21 14:08:33;;;;;;;;;;;17.00;99.90;;;;;;4980473;28;19929;-87
2022/10/21 14:11:00;;;;;;;;;;;17.00;99.90;;;;;;4995178;28;19933;-86
2022/10/21 14:13:27;;;;;;;;;;;17.00;99.90;;;;;;4970552;28;20305;-86
2022/10/21 14:15:56;;;;;;;;;;;17.00;99.90;;;;;;4977924;28;20012;-88
2022/10/21 14:18:27;;;;;;;;;;;17.00;99.90;;;;;;4995558;28;20585;-87
2022/10/21 14:20:53;;;;;;;;;;;17.00;99.90;;;;;;5001838;28;20012;-85
2022/10/21 14:23:19;;;;;;;;;;;17.00;99.90;;;;;;4961493;28;20017;-87
2022/10/21 14:25:56;;;;;;;;;;;17.00;99.90;;;;;;4985306;28;20024;-87
2022/10/21 14:28:22;;;;;;;;;;;16.90;99.90;;;;;;4977473;28;20024;-88